Terminal Aerodrome Forecast
Issued by NWS Houston/Galveston, TX

Home | Current Version | Previous Version | Text Only | Print | Product List | Glossary On
Versions: 1 2 3 4 5 6 7 8 9 10 11 12 13 14 15 16 17 18 19 20 21 22 23 24 25 26 27 28 29 30 31 32
000
FTUS44 KHGX 011720
TAFGLS
TAF
KGLS 011720Z 0118/0218 14012KT P6SM VCSH SCT015 SCT020 BKN200
      TEMPO 0122/0201 -RA
     FM020300 15010KT 6SM BR BKN015
     FM020900 16010KT 4SM BR BKN008
     FM021700 18014KT 4SM BR BKN012=

USA.gov is the U.S. government's official web portal to all federal, state and local government web resources and services.